sensor_id;sensor_type;location;lat;lon;timestamp;temperature;humidity
70456;DHT22;57916;51.996;5.180;2024-03-23T00:53:53;13.00;75.90
70456;DHT22;57916;51.996;5.180;2024-03-23T00:56:19;13.00;75.90
70456;DHT22;57916;51.996;5.180;2024-03-23T00:58:45;13.10;76.00
70456;DHT22;57916;51.996;5.180;2024-03-23T01:01:11;13.10;75.80
70456;DHT22;57916;51.996;5.180;2024-03-23T01:03:37;13.00;75.70
70456;DHT22;57916;51.996;5.180;2024-03-23T01:06:03;13.00;75.60
70456;DHT22;57916;51.996;5.180;2024-03-23T01:08:30;13.00;75.50
70456;DHT22;57916;51.996;5.180;2024-03-23T01:11:00;13.10;75.50
70456;DHT22;57916;51.996;5.180;2024-03-23T01:13:27;13.10;75.70
70456;DHT22;57916;51.996;5.180;2024-03-23T01:15:55;13.10;75.50
70456;DHT22;57916;51.996;5.180;2024-03-23T01:18:22;13.00;75.30
70456;DHT22;57916;51.996;5.180;2024-03-23T01:20:49;13.00;75.20
70456;DHT22;57916;51.996;5.180;2024-03-23T01:23:15;13.00;75.20
70456;DHT22;57916;51.996;5.180;2024-03-23T01:25:41;13.00;75.20
70456;DHT22;57916;51.996;5.180;2024-03-23T01:28:07;13.00;75.00
70456;DHT22;57916;51.996;5.180;2024-03-23T01:30:34;13.10;75.00
70456;DHT22;57916;51.996;5.180;2024-03-23T01:33:01;13.10;74.80
70456;DHT22;57916;51.996;5.180;2024-03-23T01:35:27;13.10;74.60
70456;DHT22;57916;51.996;5.180;2024-03-23T01:37:53;13.10;74.70
70456;DHT22;57916;51.996;5.180;2024-03-23T01:40:19;13.10;74.50
70456;DHT22;57916;51.996;5.180;2024-03-23T01:45:33;13.10;74.10
70456;DHT22;57916;51.996;5.180;2024-03-23T01:48:00;13.10;73.80
70456;DHT22;57916;51.996;5.180;2024-03-23T01:50:26;13.00;73.60
70456;DHT22;57916;51.996;5.180;2024-03-23T01:52:53;13.10;73.50
70456;DHT22;57916;51.996;5.180;2024-03-23T01:55:20;13.10;73.30
70456;DHT22;57916;51.996;5.180;2024-03-23T01:57:46;13.10;73.10
70456;DHT22;57916;51.996;5.180;2024-03-23T02:00:13;13.00;72.90
70456;DHT22;57916;51.996;5.180;2024-03-23T02:02:45;13.00;72.50
70456;DHT22;57916;51.996;5.180;2024-03-23T02:05:12;13.00;72.50
70456;DHT22;57916;51.996;5.180;2024-03-23T02:07:39;12.90;72.20
70456;DHT22;57916;51.996;5.180;2024-03-23T02:10:09;12.90;72.00
70456;DHT22;57916;51.996;5.180;2024-03-23T02:12:36;12.80;71.90
70456;DHT22;57916;51.996;5.180;2024-03-23T02:15:03;12.80;71.80
70456;DHT22;57916;51.996;5.180;2024-03-23T02:17:31;12.70;71.90
70456;DHT22;57916;51.996;5.180;2024-03-23T02:19:57;12.60;71.80
70456;DHT22;57916;51.996;5.180;2024-03-23T02:22:23;12.60;71.90
70456;DHT22;57916;51.996;5.180;2024-03-23T02:24:50;12.50;72.10
70456;DHT22;57916;51.996;5.180;2024-03-23T02:27:16;12.40;72.30
70456;DHT22;57916;51.996;5.180;2024-03-23T02:29:42;12.40;72.50
70456;DHT22;57916;51.996;5.180;2024-03-23T02:32:08;12.30;72.40
70456;DHT22;57916;51.996;5.180;2024-03-23T02:34:35;12.30;72.40
70456;DHT22;57916;51.996;5.180;2024-03-23T02:37:01;12.30;72.40
70456;DHT22;57916;51.996;5.180;2024-03-23T02:39:28;12.30;72.40
70456;DHT22;57916;51.996;5.180;2024-03-23T02:41:54;12.20;72.40
70456;DHT22;57916;51.996;5.180;2024-03-23T02:44:20;12.10;72.20
70456;DHT22;57916;51.996;5.180;2024-03-23T02:46:46;12.20;72.20
70456;DHT22;57916;51.996;5.180;2024-03-23T02:49:12;12.10;72.00
70456;DHT22;57916;51.996;5.180;2024-03-23T02:51:39;12.00;72.00
70456;DHT22;57916;51.996;5.180;2024-03-23T02:54:05;12.00;72.00
70456;DHT22;57916;51.996;5.180;2024-03-23T02:56:32;12.00;72.10
70456;DHT22;57916;51.996;5.180;2024-03-23T02:58:58;11.90;71.80
70456;DHT22;57916;51.996;5.180;2024-03-23T03:01:24;11.90;71.90
70456;DHT22;57916;51.996;5.180;2024-03-23T03:03:51;11.80;71.90
70456;DHT22;57916;51.996;5.180;2024-03-23T03:06:27;11.80;72.00
70456;DHT22;57916;51.996;5.180;2024-03-23T03:08:53;11.90;72.10
70456;DHT22;57916;51.996;5.180;2024-03-23T03:11:19;11.80;71.90
70456;DHT22;57916;51.996;5.180;2024-03-23T03:13:45;11.80;72.00
70456;DHT22;57916;51.996;5.180;2024-03-23T03:16:12;11.80;71.80
70456;DHT22;57916;51.996;5.180;2024-03-23T03:18:39;11.70;71.90
70456;DHT22;57916;51.996;5.180;2024-03-23T03:21:07;11.70;71.70
70456;DHT22;57916;51.996;5.180;2024-03-23T03:23:37;11.70;71.50
70456;DHT22;57916;51.996;5.180;2024-03-23T03:26:06;11.60;71.40
70456;DHT22;57916;51.996;5.180;2024-03-23T03:28:33;11.60;71.40
70456;DHT22;57916;51.996;5.180;2024-03-23T03:31:00;11.60;71.60
70456;DHT22;57916;51.996;5.180;2024-03-23T03:33:27;11.60;71.50
70456;DHT22;57916;51.996;5.180;2024-03-23T03:35:54;11.50;71.30
70456;DHT22;57916;51.996;5.180;2024-03-23T03:38:20;11.50;71.40
70456;DHT22;57916;51.996;5.180;2024-03-23T03:40:46;11.50;71.50
70456;DHT22;57916;51.996;5.180;2024-03-23T03:43:12;11.50;71.60
70456;DHT22;57916;51.996;5.180;2024-03-23T03:45:38;11.40;71.50
70456;DHT22;57916;51.996;5.180;2024-03-23T03:48:05;11.40;71.60
70456;DHT22;57916;51.996;5.180;2024-03-23T03:50:31;11.40;71.50
70456;DHT22;57916;51.996;5.180;2024-03-23T03:52:57;11.30;71.40
70456;DHT22;57916;51.996;5.180;2024-03-23T03:55:23;11.20;71.30
70456;DHT22;57916;51.996;5.180;2024-03-23T03:57:49;11.20;71.20
70456;DHT22;57916;51.996;5.180;2024-03-23T04:00:15;11.20;71.20
70456;DHT22;57916;51.996;5.180;2024-03-23T04:02:41;11.20;71.20
70456;DHT22;57916;51.996;5.180;2024-03-23T04:05:07;11.10;71.30
70456;DHT22;57916;51.996;5.180;2024-03-23T04:07:34;11.10;71.30
70456;DHT22;57916;51.996;5.180;2024-03-23T04:10:00;11.10;71.50
70456;DHT22;57916;51.996;5.180;2024-03-23T04:12:26;11.10;71.40
70456;DHT22;57916;51.996;5.180;2024-03-23T04:14:52;11.00;71.30
70456;DHT22;57916;51.996;5.180;2024-03-23T04:17:18;11.00;71.00
70456;DHT22;57916;51.996;5.180;2024-03-23T04:19:45;10.90;70.60
70456;DHT22;57916;51.996;5.180;2024-03-23T04:22:11;10.90;70.70
70456;DHT22;57916;51.996;5.180;2024-03-23T04:24:37;10.80;70.50
70456;DHT22;57916;51.996;5.180;2024-03-23T04:27:03;10.80;70.50
70456;DHT22;57916;51.996;5.180;2024-03-23T04:29:29;10.80;70.50
70456;DHT22;57916;51.996;5.180;2024-03-23T04:31:55;10.70;70.50
70456;DHT22;57916;51.996;5.180;2024-03-23T04:34:22;10.70;70.60
70456;DHT22;57916;51.996;5.180;2024-03-23T04:36:50;10.70;70.80
70456;DHT22;57916;51.996;5.180;2024-03-23T04:39:16;10.70;70.90
70456;DHT22;57916;51.996;5.180;2024-03-23T04:41:43;10.70;70.90
70456;DHT22;57916;51.996;5.180;2024-03-23T04:44:09;10.70;71.00
70456;DHT22;57916;51.996;5.180;2024-03-23T04:46:35;10.70;71.10
70456;DHT22;57916;51.996;5.180;2024-03-23T04:49:01;10.70;71.10
70456;DHT22;57916;51.996;5.180;2024-03-23T04:51:26;10.70;71.10
70456;DHT22;57916;51.996;5.180;2024-03-23T04:53:53;10.60;71.10
70456;DHT22;57916;51.996;5.180;2024-03-23T04:56:19;10.60;71.20
70456;DHT22;57916;51.996;5.180;2024-03-23T04:58:45;10.60;71.30
70456;DHT22;57916;51.996;5.180;2024-03-23T05:01:11;10.60;71.30
70456;DHT22;57916;51.996;5.180;2024-03-23T05:03:37;10.50;71.30
70456;DHT22;57916;51.996;5.180;2024-03-23T05:06:04;10.60;71.40
70456;DHT22;57916;51.996;5.180;2024-03-23T05:08:31;10.60;71.50
70456;DHT22;57916;51.996;5.180;2024-03-23T05:10:57;10.60;71.30
70456;DHT22;57916;51.996;5.180;2024-03-23T05:13:23;10.50;71.30
70456;DHT22;57916;51.996;5.180;2024-03-23T05:15:53;10.50;71.30
70456;DHT22;57916;51.996;5.180;2024-03-23T05:18:20;10.50;71.40
70456;DHT22;57916;51.996;5.180;2024-03-23T05:20:46;10.50;71.40
70456;DHT22;57916;51.996;5.180;2024-03-23T05:23:12;10.50;71.50
70456;DHT22;57916;51.996;5.180;2024-03-23T05:25:38;10.50;71.60
70456;DHT22;57916;51.996;5.180;2024-03-23T05:28:04;10.50;71.40
70456;DHT22;57916;51.996;5.180;2024-03-23T05:30:31;10.50;71.40
70456;DHT22;57916;51.996;5.180;2024-03-23T05:32:57;10.50;71.50
70456;DHT22;57916;51.996;5.180;2024-03-23T05:35:23;10.50;71.60
70456;DHT22;57916;51.996;5.180;2024-03-23T05:37:49;10.50;71.70
70456;DHT22;57916;51.996;5.180;2024-03-23T05:40:15;10.50;71.90
70456;DHT22;57916;51.996;5.180;2024-03-23T05:42:41;10.50;73.00
70456;DHT22;57916;51.996;5.180;2024-03-23T05:45:08;10.50;72.40
70456;DHT22;57916;51.996;5.180;2024-03-23T05:47:34;10.50;72.40
70456;DHT22;57916;51.996;5.180;2024-03-23T05:50:00;10.60;72.40
70456;DHT22;57916;51.996;5.180;2024-03-23T05:52:27;10.60;72.50
70456;DHT22;57916;51.996;5.180;2024-03-23T05:54:54;10.70;72.40
70456;DHT22;57916;51.996;5.180;2024-03-23T05:57:20;10.70;71.90
70456;DHT22;57916;51.996;5.180;2024-03-23T05:59:46;10.70;71.60
70456;DHT22;57916;51.996;5.180;2024-03-23T06:02:12;10.70;71.30
70456;DHT22;57916;51.996;5.180;2024-03-23T06:04:38;10.70;71.30
70456;DHT22;57916;51.996;5.180;2024-03-23T06:07:04;10.70;71.40
70456;DHT22;57916;51.996;5.180;2024-03-23T06:09:40;10.70;71.60
70456;DHT22;57916;51.996;5.180;2024-03-23T06:12:07;10.70;71.80
70456;DHT22;57916;51.996;5.180;2024-03-23T06:14:33;10.70;71.80
70456;DHT22;57916;51.996;5.180;2024-03-23T06:17:00;10.70;71.60
70456;DHT22;57916;51.996;5.180;2024-03-23T06:19:27;10.70;71.70
70456;DHT22;57916;51.996;5.180;2024-03-23T06:21:54;10.80;72.10
70456;DHT22;57916;51.996;5.180;2024-03-23T06:24:23;10.90;71.60
70456;DHT22;57916;51.996;5.180;2024-03-23T06:26:50;11.00;71.60
70456;DHT22;57916;51.996;5.180;2024-03-23T06:29:16;11.00;71.20
70456;DHT22;57916;51.996;5.180;2024-03-23T06:31:42;11.10;72.00
70456;DHT22;57916;51.996;5.180;2024-03-23T06:34:08;11.20;72.80
70456;DHT22;57916;51.996;5.180;2024-03-23T06:36:34;11.50;73.00
70456;DHT22;57916;51.996;5.180;2024-03-23T06:39:00;11.80;72.10
70456;DHT22;57916;51.996;5.180;2024-03-23T06:41:26;12.10;71.50
70456;DHT22;57916;51.996;5.180;2024-03-23T06:43:52;12.40;70.50
70456;DHT22;57916;51.996;5.180;2024-03-23T06:46:18;12.70;68.90
70456;DHT22;57916;51.996;5.180;2024-03-23T06:48:47;13.00;68.20
70456;DHT22;57916;51.996;5.180;2024-03-23T06:51:13;13.30;67.50
70456;DHT22;57916;51.996;5.180;2024-03-23T06:53:39;13.60;66.80
70456;DHT22;57916;51.996;5.180;2024-03-23T06:56:06;13.90;66.60
70456;DHT22;57916;51.996;5.180;2024-03-23T06:58:32;14.30;65.80
70456;DHT22;57916;51.996;5.180;2024-03-23T07:00:58;14.50;64.70
70456;DHT22;57916;51.996;5.180;2024-03-23T07:03:24;14.80;63.80
70456;DHT22;57916;51.996;5.180;2024-03-23T07:05:51;15.00;63.10
70456;DHT22;57916;51.996;5.180;2024-03-23T07:08:17;15.30;62.10
70456;DHT22;57916;51.996;5.180;2024-03-23T07:10:48;15.50;61.70
70456;DHT22;57916;51.996;5.180;2024-03-23T07:13:14;15.70;61.10
70456;DHT22;57916;51.996;5.180;2024-03-23T07:15:40;15.80;60.60
70456;DHT22;57916;51.996;5.180;2024-03-23T07:18:06;16.00;59.70
70456;DHT22;57916;51.996;5.180;2024-03-23T07:20:32;16.10;58.80
70456;DHT22;57916;51.996;5.180;2024-03-23T07:22:58;16.10;59.10
70456;DHT22;57916;51.996;5.180;2024-03-23T07:25:24;16.20;58.80
70456;DHT22;57916;51.996;5.180;2024-03-23T07:27:53;16.30;58.30
70456;DHT22;57916;51.996;5.180;2024-03-23T07:30:19;16.50;57.80
70456;DHT22;57916;51.996;5.180;2024-03-23T07:32:45;16.60;57.30
70456;DHT22;57916;51.996;5.180;2024-03-23T07:35:11;16.70;56.60
70456;DHT22;57916;51.996;5.180;2024-03-23T07:37:37;16.70;56.60
70456;DHT22;57916;51.996;5.180;2024-03-23T07:40:03;16.80;56.00
70456;DHT22;57916;51.996;5.180;2024-03-23T07:42:30;16.90;56.10
70456;DHT22;57916;51.996;5.180;2024-03-23T07:44:56;17.00;56.00
70456;DHT22;57916;51.996;5.180;2024-03-23T07:47:22;17.20;55.60
70456;DHT22;57916;51.996;5.180;2024-03-23T07:49:49;17.30;56.20
70456;DHT22;57916;51.996;5.180;2024-03-23T07:52:14;17.40;53.70
70456;DHT22;57916;51.996;5.180;2024-03-23T07:54:40;17.40;53.40
70456;DHT22;57916;51.996;5.180;2024-03-23T07:57:07;17.40;54.60
70456;DHT22;57916;51.996;5.180;2024-03-23T07:59:33;17.40;54.70
70456;DHT22;57916;51.996;5.180;2024-03-23T08:02:00;17.50;54.50
70456;DHT22;57916;51.996;5.180;2024-03-23T08:04:27;17.60;54.40
70456;DHT22;57916;51.996;5.180;2024-03-23T08:06:53;17.60;53.80
70456;DHT22;57916;51.996;5.180;2024-03-23T08:09:19;17.60;51.80
70456;DHT22;57916;51.996;5.180;2024-03-23T08:11:45;17.30;50.40
70456;DHT22;57916;51.996;5.180;2024-03-23T08:14:12;17.00;52.70
70456;DHT22;57916;51.996;5.180;2024-03-23T08:16:38;17.00;53.00
70456;DHT22;57916;51.996;5.180;2024-03-23T08:19:04;16.90;52.20
70456;DHT22;57916;51.996;5.180;2024-03-23T08:21:31;16.90;51.90
70456;DHT22;57916;51.996;5.180;2024-03-23T08:23:57;16.90;51.10
70456;DHT22;57916;51.996;5.180;2024-03-23T08:26:23;16.90;51.10
70456;DHT22;57916;51.996;5.180;2024-03-23T08:28:49;16.60;51.20
70456;DHT22;57916;51.996;5.180;2024-03-23T08:31:15;16.40;52.20
70456;DHT22;57916;51.996;5.180;2024-03-23T08:33:41;16.10;51.80
70456;DHT22;57916;51.996;5.180;2024-03-23T08:36:10;15.80;51.20
70456;DHT22;57916;51.996;5.180;2024-03-23T08:38:40;15.50;51.90
70456;DHT22;57916;51.996;5.180;2024-03-23T08:41:11;15.30;54.10
70456;DHT22;57916;51.996;5.180;2024-03-23T08:43:41;15.10;55.70
70456;DHT22;57916;51.996;5.180;2024-03-23T08:46:09;15.00;57.90
70456;DHT22;57916;51.996;5.180;2024-03-23T08:48:40;15.10;56.90
70456;DHT22;57916;51.996;5.180;2024-03-23T08:51:08;15.20;55.10
70456;DHT22;57916;51.996;5.180;2024-03-23T08:53:35;15.00;55.00
70456;DHT22;57916;51.996;5.180;2024-03-23T08:56:03;15.00;55.00
70456;DHT22;57916;51.996;5.180;2024-03-23T08:58:30;15.00;56.50
70456;DHT22;57916;51.996;5.180;2024-03-23T09:01:03;15.20;56.50
70456;DHT22;57916;51.996;5.180;2024-03-23T09:03:30;15.50;55.80
70456;DHT22;57916;51.996;5.180;2024-03-23T09:05:57;15.80;56.50
70456;DHT22;57916;51.996;5.180;2024-03-23T09:08:24;16.10;56.10
70456;DHT22;57916;51.996;5.180;2024-03-23T09:10:51;16.40;54.80
70456;DHT22;57916;51.996;5.180;2024-03-23T09:13:17;16.80;54.70
70456;DHT22;57916;51.996;5.180;2024-03-23T09:15:48;17.10;53.40
70456;DHT22;57916;51.996;5.180;2024-03-23T09:18:15;17.20;51.40
70456;DHT22;57916;51.996;5.180;2024-03-23T09:20:41;17.20;50.20
70456;DHT22;57916;51.996;5.180;2024-03-23T09:23:07;16.90;50.50
70456;DHT22;57916;51.996;5.180;2024-03-23T09:25:36;16.90;51.60
70456;DHT22;57916;51.996;5.180;2024-03-23T09:28:03;17.00;52.50
70456;DHT22;57916;51.996;5.180;2024-03-23T09:30:32;17.00;50.90
70456;DHT22;57916;51.996;5.180;2024-03-23T09:32:59;16.90;50.70
70456;DHT22;57916;51.996;5.180;2024-03-23T09:35:25;16.90;52.60
70456;DHT22;57916;51.996;5.180;2024-03-23T09:37:51;16.90;54.50
70456;DHT22;57916;51.996;5.180;2024-03-23T09:40:17;17.00;52.70
70456;DHT22;57916;51.996;5.180;2024-03-23T09:42:50;16.90;51.80
70456;DHT22;57916;51.996;5.180;2024-03-23T09:45:27;16.80;50.30
70456;DHT22;57916;51.996;5.180;2024-03-23T09:47:57;16.40;50.50
70456;DHT22;57916;51.996;5.180;2024-03-23T09:50:23;16.20;52.60
70456;DHT22;57916;51.996;5.180;2024-03-23T09:52:49;16.30;54.80
70456;DHT22;57916;51.996;5.180;2024-03-23T09:55:16;16.60;53.80
70456;DHT22;57916;51.996;5.180;2024-03-23T09:57:42;16.80;52.90
70456;DHT22;57916;51.996;5.180;2024-03-23T10:00:08;17.10;53.10
70456;DHT22;57916;51.996;5.180;2024-03-23T10:02:35;17.40;52.90
70456;DHT22;57916;51.996;5.180;2024-03-23T10:05:01;17.60;50.40
70456;DHT22;57916;51.996;5.180;2024-03-23T10:07:27;17.90;50.80
70456;DHT22;57916;51.996;5.180;2024-03-23T10:09:56;18.20;50.40
70456;DHT22;57916;51.996;5.180;2024-03-23T10:12:23;18.50;48.00
70456;DHT22;57916;51.996;5.180;2024-03-23T10:14:50;18.70;46.80
70456;DHT22;57916;51.996;5.180;2024-03-23T10:17:21;18.70;46.90
70456;DHT22;57916;51.996;5.180;2024-03-23T10:19:52;18.60;45.70
70456;DHT22;57916;51.996;5.180;2024-03-23T10:22:20;18.50;46.00
70456;DHT22;57916;51.996;5.180;2024-03-23T10:24:47;18.70;47.10
70456;DHT22;57916;51.996;5.180;2024-03-23T10:27:23;18.80;46.80
70456;DHT22;57916;51.996;5.180;2024-03-23T10:29:50;18.90;46.90
70456;DHT22;57916;51.996;5.180;2024-03-23T10:32:19;19.10;45.20
70456;DHT22;57916;51.996;5.180;2024-03-23T10:34:45;19.10;44.40
70456;DHT22;57916;51.996;5.180;2024-03-23T10:37:11;19.20;44.80
70456;DHT22;57916;51.996;5.180;2024-03-23T10:39:42;19.20;45.30
70456;DHT22;57916;51.996;5.180;2024-03-23T10:42:09;19.20;44.00
70456;DHT22;57916;51.996;5.180;2024-03-23T10:44:38;19.10;43.30
70456;DHT22;57916;51.996;5.180;2024-03-23T10:47:05;18.80;43.30
70456;DHT22;57916;51.996;5.180;2024-03-23T10:49:35;18.40;43.20
70456;DHT22;57916;51.996;5.180;2024-03-23T10:52:05;18.20;45.20
70456;DHT22;57916;51.996;5.180;2024-03-23T10:54:32;17.90;44.50
70456;DHT22;57916;51.996;5.180;2024-03-23T10:57:02;17.60;44.80
70456;DHT22;57916;51.996;5.180;2024-03-23T10:59:30;17.50;48.00
70456;DHT22;57916;51.996;5.180;2024-03-23T11:02:00;17.60;50.10
70456;DHT22;57916;51.996;5.180;2024-03-23T11:04:33;17.90;48.70
70456;DHT22;57916;51.996;5.180;2024-03-23T11:07:00;18.20;47.40
70456;DHT22;57916;51.996;5.180;2024-03-23T11:14:50;18.80;46.10
70456;DHT22;57916;51.996;5.180;2024-03-23T11:17:20;19.10;46.30
70456;DHT22;57916;51.996;5.180;2024-03-23T11:19:59;19.30;46.50
70456;DHT22;57916;51.996;5.180;2024-03-23T11:25:20;19.50;46.90
70456;DHT22;57916;51.996;5.180;2024-03-23T11:27:48;19.40;46.10
70456;DHT22;57916;51.996;5.180;2024-03-23T11:30:19;19.30;45.30
70456;DHT22;57916;51.996;5.180;2024-03-23T11:32:46;19.40;45.00
70456;DHT22;57916;51.996;5.180;2024-03-23T11:35:45;19.40;42.60
70456;DHT22;57916;51.996;5.180;2024-03-23T11:43:11;19.50;43.60
70456;DHT22;57916;51.996;5.180;2024-03-23T11:45:39;19.70;42.70
70456;DHT22;57916;51.996;5.180;2024-03-23T11:48:14;19.80;43.40
70456;DHT22;57916;51.996;5.180;2024-03-23T11:50:42;19.90;42.40
70456;DHT22;57916;51.996;5.180;2024-03-23T11:53:15;20.00;41.40
70456;DHT22;57916;51.996;5.180;2024-03-23T11:56:02;19.90;41.00
70456;DHT22;57916;51.996;5.180;2024-03-23T11:58:28;19.70;40.50
70456;DHT22;57916;51.996;5.180;2024-03-23T12:00:58;19.60;39.80
70456;DHT22;57916;51.996;5.180;2024-03-23T12:03:26;19.30;40.80
70456;DHT22;57916;51.996;5.180;2024-03-23T12:05:53;19.00;39.70
70456;DHT22;57916;51.996;5.180;2024-03-23T12:08:24;18.70;40.90
70456;DHT22;57916;51.996;5.180;2024-03-23T12:13:33;18.40;44.20
70456;DHT22;57916;51.996;5.180;2024-03-23T12:18:36;18.80;43.60
70456;DHT22;57916;51.996;5.180;2024-03-23T12:21:03;18.90;42.20
70456;DHT22;57916;51.996;5.180;2024-03-23T12:23:29;18.90;41.00
70456;DHT22;57916;51.996;5.180;2024-03-23T12:25:55;18.80;40.70
70456;DHT22;57916;51.996;5.180;2024-03-23T12:28:21;18.70;42.00
70456;DHT22;57916;51.996;5.180;2024-03-23T12:30:47;18.60;41.60
70456;DHT22;57916;51.996;5.180;2024-03-23T12:33:13;18.30;41.40
70456;DHT22;57916;51.996;5.180;2024-03-23T12:35:39;18.00;41.90
70456;DHT22;57916;51.996;5.180;2024-03-23T12:38:05;17.70;42.20
70456;DHT22;57916;51.996;5.180;2024-03-23T12:40:31;17.40;42.80
70456;DHT22;57916;51.996;5.180;2024-03-23T12:42:58;17.10;43.20
70456;DHT22;57916;51.996;5.180;2024-03-23T12:45:24;16.80;45.10
70456;DHT22;57916;51.996;5.180;2024-03-23T12:47:50;16.70;44.30
70456;DHT22;57916;51.996;5.180;2024-03-23T12:50:20;16.50;44.60
70456;DHT22;57916;51.996;5.180;2024-03-23T12:52:46;16.30;45.90
70456;DHT22;57916;51.996;5.180;2024-03-23T12:55:12;16.20;46.40
70456;DHT22;57916;51.996;5.180;2024-03-23T12:57:38;16.20;47.30
70456;DHT22;57916;51.996;5.180;2024-03-23T13:00:06;16.20;49.50
70456;DHT22;57916;51.996;5.180;2024-03-23T13:02:35;16.20;47.30
70456;DHT22;57916;51.996;5.180;2024-03-23T13:05:01;16.20;45.70
70456;DHT22;57916;51.996;5.180;2024-03-23T13:07:27;16.10;45.60
70456;DHT22;57916;51.996;5.180;2024-03-23T13:09:53;16.00;45.40
70456;DHT22;57916;51.996;5.180;2024-03-23T13:12:19;16.00;45.90
70456;DHT22;57916;51.996;5.180;2024-03-23T13:14:46;15.90;46.00
70456;DHT22;57916;51.996;5.180;2024-03-23T13:17:12;15.80;45.70
70456;DHT22;57916;51.996;5.180;2024-03-23T13:19:38;15.60;45.20
70456;DHT22;57916;51.996;5.180;2024-03-23T13:22:05;15.40;47.40
70456;DHT22;57916;51.996;5.180;2024-03-23T13:24:31;15.20;48.70
70456;DHT22;57916;51.996;5.180;2024-03-23T13:26:57;15.10;50.00
70456;DHT22;57916;51.996;5.180;2024-03-23T13:29:24;15.00;49.80
70456;DHT22;57916;51.996;5.180;2024-03-23T13:31:51;15.00;50.70
70456;DHT22;57916;51.996;5.180;2024-03-23T13:34:18;15.00;50.30
70456;DHT22;57916;51.996;5.180;2024-03-23T13:36:45;14.90;50.80
70456;DHT22;57916;51.996;5.180;2024-03-23T13:39:12;14.90;50.80
70456;DHT22;57916;51.996;5.180;2024-03-23T13:41:45;14.80;49.60
70456;DHT22;57916;51.996;5.180;2024-03-23T13:44:12;14.60;48.60
70456;DHT22;57916;51.996;5.180;2024-03-23T13:46:39;14.50;49.10
70456;DHT22;57916;51.996;5.180;2024-03-23T13:49:06;14.30;50.20
70456;DHT22;57916;51.996;5.180;2024-03-23T13:51:32;14.20;51.10
70456;DHT22;57916;51.996;5.180;2024-03-23T13:53:58;14.10;51.80
70456;DHT22;57916;51.996;5.180;2024-03-23T13:56:30;14.00;53.60
70456;DHT22;57916;51.996;5.180;2024-03-23T13:58:56;14.00;55.10
70456;DHT22;57916;51.996;5.180;2024-03-23T14:01:23;14.00;56.50
70456;DHT22;57916;51.996;5.180;2024-03-23T14:03:50;14.10;55.60
70456;DHT22;57916;51.996;5.180;2024-03-23T14:06:16;14.20;54.60
70456;DHT22;57916;51.996;5.180;2024-03-23T14:08:42;14.20;53.60
70456;DHT22;57916;51.996;5.180;2024-03-23T14:11:09;14.20;53.30
70456;DHT22;57916;51.996;5.180;2024-03-23T14:13:36;14.20;52.60
70456;DHT22;57916;51.996;5.180;2024-03-23T14:16:03;14.20;52.80
70456;DHT22;57916;51.996;5.180;2024-03-23T14:18:29;14.20;53.20
70456;DHT22;57916;51.996;5.180;2024-03-23T14:21:00;14.20;52.50
70456;DHT22;57916;51.996;5.180;2024-03-23T14:23:27;14.10;50.80
70456;DHT22;57916;51.996;5.180;2024-03-23T14:26:00;14.10;50.60
70456;DHT22;57916;51.996;5.180;2024-03-23T14:28:26;14.10;50.30
70456;DHT22;57916;51.996;5.180;2024-03-23T14:30:55;14.10;49.90
70456;DHT22;57916;51.996;5.180;2024-03-23T14:33:21;14.10;49.80
70456;DHT22;57916;51.996;5.180;2024-03-23T14:35:55;14.00;50.10
70456;DHT22;57916;51.996;5.180;2024-03-23T14:38:24;14.10;51.80
70456;DHT22;57916;51.996;5.180;2024-03-23T14:40:50;14.20;51.30
70456;DHT22;57916;51.996;5.180;2024-03-23T14:43:18;14.20;52.70
70456;DHT22;57916;51.996;5.180;2024-03-23T14:46:07;14.20;51.00
70456;DHT22;57916;51.996;5.180;2024-03-23T14:48:34;14.10;50.40
70456;DHT22;57916;51.996;5.180;2024-03-23T14:51:01;14.00;50.30
70456;DHT22;57916;51.996;5.180;2024-03-23T14:53:34;14.00;50.50
70456;DHT22;57916;51.996;5.180;2024-03-23T14:56:01;14.00;50.90
70456;DHT22;57916;51.996;5.180;2024-03-23T14:58:28;14.00;50.20
70456;DHT22;57916;51.996;5.180;2024-03-23T15:03:27;14.00;50.70
70456;DHT22;57916;51.996;5.180;2024-03-23T15:05:58;13.90;49.90
70456;DHT22;57916;51.996;5.180;2024-03-23T15:08:25;13.80;50.40
70456;DHT22;57916;51.996;5.180;2024-03-23T15:10:53;13.80;51.40
70456;DHT22;57916;51.996;5.180;2024-03-23T15:13:19;13.70;52.20
70456;DHT22;57916;51.996;5.180;2024-03-23T15:15:48;13.80;52.70
70456;DHT22;57916;51.996;5.180;2024-03-23T15:18:15;13.80;53.00
70456;DHT22;57916;51.996;5.180;2024-03-23T15:20:42;13.80;52.90
70456;DHT22;57916;51.996;5.180;2024-03-23T15:23:17;13.90;52.90
70456;DHT22;57916;51.996;5.180;2024-03-23T15:25:43;13.90;52.90
70456;DHT22;57916;51.996;5.180;2024-03-23T15:28:09;13.80;53.00
70456;DHT22;57916;51.996;5.180;2024-03-23T15:30:35;13.80;53.10
70456;DHT22;57916;51.996;5.180;2024-03-23T15:33:01;13.80;53.30
70456;DHT22;57916;51.996;5.180;2024-03-23T15:35:28;13.80;52.80
70456;DHT22;57916;51.996;5.180;2024-03-23T15:37:54;13.80;53.30
70456;DHT22;57916;51.996;5.180;2024-03-23T15:40:20;13.80;54.30
70456;DHT22;57916;51.996;5.180;2024-03-23T15:42:46;13.80;54.50
70456;DHT22;57916;51.996;5.180;2024-03-23T15:45:12;13.80;55.10
70456;DHT22;57916;51.996;5.180;2024-03-23T15:47:38;13.80;55.60
70456;DHT22;57916;51.996;5.180;2024-03-23T15:50:05;13.80;56.10
70456;DHT22;57916;51.996;5.180;2024-03-23T15:52:35;13.80;56.10
70456;DHT22;57916;51.996;5.180;2024-03-23T15:55:03;13.80;55.30
70456;DHT22;57916;51.996;5.180;2024-03-23T15:57:34;13.80;55.80
70456;DHT22;57916;51.996;5.180;2024-03-23T16:00:04;13.80;55.50
70456;DHT22;57916;51.996;5.180;2024-03-23T16:02:39;13.80;55.80
70456;DHT22;57916;51.996;5.180;2024-03-23T16:05:05;13.80;56.00
70456;DHT22;57916;51.996;5.180;2024-03-23T16:07:33;13.70;55.90
70456;DHT22;57916;51.996;5.180;2024-03-23T16:09:59;13.80;55.50
70456;DHT22;57916;51.996;5.180;2024-03-23T16:12:31;13.70;54.70
70456;DHT22;57916;51.996;5.180;2024-03-23T16:15:00;13.70;53.80
70456;DHT22;57916;51.996;5.180;2024-03-23T16:17:26;13.60;53.80
70456;DHT22;57916;51.996;5.180;2024-03-23T16:19:52;13.50;54.00
70456;DHT22;57916;51.996;5.180;2024-03-23T16:22:19;13.50;54.10
70456;DHT22;57916;51.996;5.180;2024-03-23T16:24:45;13.50;53.50
70456;DHT22;57916;51.996;5.180;2024-03-23T16:27:11;13.40;53.60
70456;DHT22;57916;51.996;5.180;2024-03-23T16:29:37;13.40;53.60
70456;DHT22;57916;51.996;5.180;2024-03-23T16:32:03;13.30;53.40
70456;DHT22;57916;51.996;5.180;2024-03-23T16:34:29;13.30;53.40
70456;DHT22;57916;51.996;5.180;2024-03-23T16:36:55;13.30;54.00
70456;DHT22;57916;51.996;5.180;2024-03-23T16:39:21;13.30;54.30
70456;DHT22;57916;51.996;5.180;2024-03-23T16:41:47;13.40;54.40
70456;DHT22;57916;51.996;5.180;2024-03-23T16:44:13;13.40;54.00
70456;DHT22;57916;51.996;5.180;2024-03-23T16:46:39;13.50;53.60